createdAt,value
2017-08-29T00:00:44.676Z,2.4
2017-08-29T00:01:47.103Z,2.5
2017-08-29T00:02:49.530Z,2.4
2017-08-29T00:03:51.949Z,2.4
2017-08-29T00:04:54.387Z,2.5
2017-08-29T00:05:56.814Z,2.4
2017-08-29T00:06:59.240Z,2.5
2017-08-29T00:08:01.675Z,2.4
2017-08-29T00:09:04.444Z,2.4
2017-08-29T00:10:07.223Z,2.5
2017-08-29T00:11:09.656Z,2.5
2017-08-29T00:12:12.080Z,2.4
2017-08-29T00:13:14.506Z,2.5
2017-08-29T00:14:16.939Z,2.5
2017-08-29T00:15:19.360Z,2.4
2017-08-29T00:16:21.783Z,2.5
2017-08-29T00:17:24.211Z,2.4
2017-08-29T00:18:26.635Z,2.4
2017-08-29T00:19:29.063Z,2.4
2017-08-29T00:20:31.491Z,2.5
2017-08-29T00:21:33.918Z,2.5
2017-08-29T00:22:36.354Z,2.5
2017-08-29T00:23:38.773Z,2.4
2017-08-29T00:24:41.207Z,2.4
2017-08-29T00:25:43.639Z,2.4
2017-08-29T00:26:46.062Z,2.4
2017-08-29T00:27:48.831Z,2.4
2017-08-29T00:28:51.255Z,2.5
2017-08-29T00:29:53.679Z,2.5
2017-08-29T00:30:56.110Z,2.5
2017-08-29T00:31:58.539Z,2.4
2017-08-29T00:33:00.965Z,2.4
2017-08-29T00:34:03.402Z,2.4
2017-08-29T00:35:05.829Z,2.4
2017-08-29T00:36:08.255Z,2.5
2017-08-29T00:37:10.691Z,2.5
2017-08-29T00:38:13.110Z,2.4
2017-08-29T00:39:15.535Z,2.5
2017-08-29T00:40:17.969Z,2.4
2017-08-29T00:41:20.391Z,2.4
2017-08-29T00:42:22.819Z,2.4
2017-08-29T00:43:25.244Z,2.4
2017-08-29T00:44:28.011Z,2.4
2017-08-29T00:45:30.446Z,2.4
2017-08-29T00:46:32.874Z,2.4
2017-08-29T00:47:35.294Z,2.7
2017-08-29T00:48:37.730Z,2.5
2017-08-29T00:49:40.161Z,2.5
2017-08-29T00:50:42.585Z,2.4
2017-08-29T00:51:45.013Z,2.5
2017-08-29T00:52:47.438Z,2.5
2017-08-29T00:53:49.871Z,2.4
2017-08-29T00:54:52.296Z,2.5
2017-08-29T00:55:54.723Z,2.5
2017-08-29T00:56:57.151Z,2.4
2017-08-29T00:57:59.578Z,2.4
2017-08-29T00:59:02.009Z,2.4
2017-08-29T01:00:04.431Z,2.5
2017-08-29T01:01:06.861Z,2.5
2017-08-29T01:02:09.298Z,2.5
2017-08-29T01:03:11.728Z,2.5
2017-08-29T01:04:14.156Z,2.4
2017-08-29T01:05:16.586Z,2.5
2017-08-29T01:06:19.007Z,2.5
2017-08-29T01:07:21.777Z,2.4
2017-08-29T01:08:24.566Z,2.5
2017-08-29T01:09:27.349Z,2.4
2017-08-29T01:10:29.802Z,2.4
2017-08-29T01:11:32.230Z,2.4
2017-08-29T01:12:35.343Z,2.4
2017-08-29T01:13:37.777Z,2.4
2017-08-29T01:14:40.204Z,2.6
2017-08-29T01:15:42.635Z,2.4
2017-08-29T01:16:45.064Z,2.3
2017-08-29T01:17:47.496Z,2.4
2017-08-29T01:18:49.925Z,2.4
2017-08-29T01:19:52.351Z,2.4
2017-08-29T01:20:54.789Z,2.4
2017-08-29T01:21:57.214Z,2.4
2017-08-29T01:22:59.638Z,2.4
2017-08-29T01:24:02.069Z,2.4
2017-08-29T01:25:04.501Z,2.4
2017-08-29T01:26:06.926Z,2.4
2017-08-29T01:27:09.357Z,2.4
2017-08-29T01:28:11.783Z,2.4
2017-08-29T01:29:14.213Z,2.4
2017-08-29T01:30:16.646Z,2.4
2017-08-29T01:31:19.069Z,2.4
2017-08-29T01:32:21.497Z,2.4
2017-08-29T01:33:23.919Z,2.4
2017-08-29T01:34:26.683Z,2.5
2017-08-29T01:35:29.114Z,2.4
2017-08-29T01:36:31.540Z,2.4
2017-08-29T01:37:34.316Z,2.4
2017-08-29T01:38:36.748Z,2.4
2017-08-29T01:39:39.522Z,2.4
2017-08-29T01:40:41.948Z,2.4
2017-08-29T01:41:44.377Z,2.3
2017-08-29T01:42:46.799Z,2.4
2017-08-29T01:43:49.236Z,2.4
2017-08-29T01:44:51.668Z,2.5
2017-08-29T01:45:54.088Z,2.5
2017-08-29T01:46:56.518Z,2.4
2017-08-29T01:47:58.957Z,2.4
2017-08-29T01:49:01.719Z,2.4
2017-08-29T01:50:04.149Z,2.4
2017-08-29T01:51:07.274Z,2.3
2017-08-29T01:52:09.700Z,2.3
2017-08-29T01:53:12.130Z,2.3
2017-08-29T01:54:14.548Z,2.4
2017-08-29T01:55:16.977Z,2.4
2017-08-29T01:56:19.401Z,2.3
2017-08-29T01:57:21.833Z,2.4
2017-08-29T01:58:24.265Z,2.3
2017-08-29T01:59:26.693Z,2.3
2017-08-29T02:00:29.120Z,2.4
2017-08-29T02:01:31.553Z,2.3
2017-08-29T02:02:33.978Z,2.3
2017-08-29T02:03:36.410Z,2.4
2017-08-29T02:04:38.838Z,2.3
2017-08-29T02:05:41.612Z,2.3
2017-08-29T02:06:44.040Z,2.4
2017-08-29T02:07:46.471Z,2.3
2017-08-29T02:08:48.893Z,2.3
2017-08-29T02:09:51.324Z,2.4
2017-08-29T02:10:53.746Z,2.3
2017-08-29T02:11:56.521Z,2.3
2017-08-29T02:12:58.948Z,2.3
2017-08-29T02:14:01.376Z,2.4
2017-08-29T02:15:03.807Z,2.3
2017-08-29T02:16:06.238Z,2.4
2017-08-29T02:17:08.666Z,2.3
2017-08-29T02:18:11.097Z,2.4
2017-08-29T02:19:13.524Z,2.3
2017-08-29T02:20:15.944Z,2.4
2017-08-29T02:21:18.372Z,2.4
2017-08-29T02:22:20.805Z,2.4
2017-08-29T02:23:23.232Z,2.4
2017-08-29T02:24:25.658Z,2.3
2017-08-29T02:25:28.091Z,2.4
2017-08-29T02:26:30.518Z,2.3
2017-08-29T02:27:32.953Z,2.4
2017-08-29T02:28:35.386Z,2.3
2017-08-29T02:29:37.805Z,2.3
2017-08-29T02:30:40.237Z,2.5
2017-08-29T02:31:42.662Z,2.4
2017-08-29T02:32:45.087Z,2.3
2017-08-29T02:33:47.514Z,2.3
2017-08-29T02:34:49.933Z,2.4
2017-08-29T02:35:52.360Z,2.3
2017-08-29T02:36:54.790Z,2.3
2017-08-29T02:37:57.561Z,2.3
2017-08-29T02:38:59.986Z,2.3
2017-08-29T02:40:02.412Z,2.4
2017-08-29T02:41:04.835Z,2.3
2017-08-29T02:42:07.272Z,2.4
2017-08-29T02:43:09.705Z,2.3
2017-08-29T02:44:12.496Z,2.3
2017-08-29T02:45:14.912Z,2.3
2017-08-29T02:46:17.694Z,2.3
2017-08-29T02:47:20.121Z,2.4
2017-08-29T02:48:22.550Z,2.3
2017-08-29T02:49:24.983Z,2.3
2017-08-29T02:50:27.409Z,2.3
2017-08-29T02:51:29.831Z,2.3
2017-08-29T02:52:32.260Z,2.3
2017-08-29T02:53:34.702Z,2.3
2017-08-29T02:54:37.120Z,2.3
2017-08-29T02:55:39.545Z,2.3
2017-08-29T02:56:41.972Z,2.3
2017-08-29T02:57:44.399Z,2.3
2017-08-29T02:58:46.827Z,2.3
2017-08-29T02:59:49.258Z,2.4
2017-08-29T03:00:51.676Z,2.3
2017-08-29T03:01:54.106Z,2.3
2017-08-29T03:02:56.532Z,2.3
2017-08-29T03:03:58.958Z,2.4
2017-08-29T03:05:01.387Z,2.3
2017-08-29T03:06:03.813Z,2.3
2017-08-29T03:07:06.237Z,2.3
2017-08-29T03:08:09.014Z,2.2
2017-08-29T03:09:11.432Z,2.3
2017-08-29T03:10:13.861Z,2.3
2017-08-29T03:11:16.287Z,2.3
2017-08-29T03:12:18.717Z,2.3
2017-08-29T03:13:21.149Z,2.3
2017-08-29T03:14:23.581Z,2.3
2017-08-29T03:15:26.005Z,2.3
2017-08-29T03:16:28.777Z,2.3
2017-08-29T03:17:31.545Z,2.3
2017-08-29T03:18:33.972Z,2.2
2017-08-29T03:19:36.394Z,2.3
2017-08-29T03:20:38.825Z,2.3
2017-08-29T03:21:41.255Z,2.3
2017-08-29T03:22:43.673Z,2.3
2017-08-29T03:23:46.105Z,2.2
2017-08-29T03:24:48.525Z,2.3
2017-08-29T03:25:50.950Z,2.3
2017-08-29T03:26:53.385Z,2.3
2017-08-29T03:27:55.808Z,2.3
2017-08-29T03:28:58.570Z,2.3
2017-08-29T03:30:01.003Z,2.2
2017-08-29T03:31:03.428Z,2.3
2017-08-29T03:32:05.856Z,2.2
2017-08-29T03:33:08.633Z,2.3
2017-08-29T03:34:11.054Z,2.3
2017-08-29T03:35:13.488Z,2.2
2017-08-29T03:36:15.909Z,2.2
2017-08-29T03:37:18.483Z,2.2
2017-08-29T03:38:20.917Z,2.2
2017-08-29T03:39:23.343Z,2.3
2017-08-29T03:40:25.770Z,2.2
2017-08-29T03:41:28.206Z,2.3
2017-08-29T03:42:30.631Z,2.3
2017-08-29T03:43:33.059Z,2.3
2017-08-29T03:44:35.490Z,2.3
2017-08-29T03:45:37.917Z,2.3
2017-08-29T03:46:40.338Z,2.3
2017-08-29T03:47:42.770Z,2.2
2017-08-29T03:48:45.203Z,2.2
2017-08-29T03:49:47.630Z,2.3
2017-08-29T03:50:50.054Z,2.2
2017-08-29T03:51:52.482Z,2.3
2017-08-29T03:52:55.249Z,2.3
2017-08-29T03:53:57.675Z,2.3
2017-08-29T03:55:00.099Z,2.3
2017-08-29T03:56:02.527Z,2.2
2017-08-29T03:57:04.951Z,2.2
2017-08-29T03:58:07.378Z,2.3
2017-08-29T03:59:09.821Z,2.3
2017-08-29T04:00:12.231Z,2.3
2017-08-29T04:01:14.654Z,2.3
2017-08-29T04:02:17.081Z,2.2
2017-08-29T04:03:19.504Z,2.3
2017-08-29T04:04:21.932Z,2.3
2017-08-29T04:05:24.352Z,2.3
2017-08-29T04:06:26.784Z,2.2
2017-08-29T04:07:29.215Z,2.2
2017-08-29T04:08:31.643Z,2.3
2017-08-29T04:09:34.073Z,2.3
2017-08-29T04:10:36.502Z,2.3
2017-08-29T04:11:38.923Z,2.2
2017-08-29T04:12:41.350Z,2.3
2017-08-29T04:13:43.774Z,2.2
2017-08-29T04:14:46.202Z,2.3
2017-08-29T04:15:48.622Z,2.2
2017-08-29T04:16:51.053Z,2.3
2017-08-29T04:17:53.478Z,2.2
2017-08-29T04:18:55.905Z,2.3
2017-08-29T04:19:58.669Z,2.2
2017-08-29T04:21:01.099Z,2.2
2017-08-29T04:22:03.522Z,2.2
2017-08-29T04:23:05.955Z,2.2
2017-08-29T04:24:08.372Z,2.3
2017-08-29T04:25:10.801Z,2.3
2017-08-29T04:26:13.227Z,2.3
2017-08-29T04:27:15.653Z,2.2
2017-08-29T04:28:18.081Z,2.2
2017-08-29T04:29:20.509Z,2.3
2017-08-29T04:30:22.936Z,2.2
2017-08-29T04:31:25.362Z,2.1
2017-08-29T04:32:27.793Z,2.3
2017-08-29T04:33:30.214Z,2.2
2017-08-29T04:34:32.645Z,2.3
2017-08-29T04:35:35.071Z,2.3
2017-08-29T04:36:37.503Z,2.2
2017-08-29T04:37:39.928Z,2.3
2017-08-29T04:38:42.349Z,2.2
2017-08-29T04:39:44.768Z,2.2
2017-08-29T04:40:47.199Z,2.2
2017-08-29T04:41:49.623Z,2.2
2017-08-29T04:42:52.052Z,2.2
2017-08-29T04:43:54.477Z,2.2
2017-08-29T04:44:56.902Z,2.2
2017-08-29T04:45:59.327Z,2.2
2017-08-29T04:47:01.754Z,2.2
2017-08-29T04:48:04.190Z,2.2
2017-08-29T04:49:07.314Z,2.3
2017-08-29T04:50:09.743Z,2.2
2017-08-29T04:51:12.167Z,2.2
2017-08-29T04:52:14.939Z,2.2
2017-08-29T04:53:17.362Z,2.2
2017-08-29T04:54:19.792Z,2.3
2017-08-29T04:55:22.212Z,2.3
2017-08-29T04:56:24.645Z,2.2
2017-08-29T04:57:27.091Z,2.3
2017-08-29T04:58:29.515Z,2.3
2017-08-29T04:59:31.947Z,2.3
2017-08-29T05:00:34.373Z,2.3
2017-08-29T05:01:36.804Z,2.2
2017-08-29T05:02:39.229Z,2.2
2017-08-29T05:03:42.004Z,2.1
2017-08-29T05:04:44.423Z,2.5
2017-08-29T05:05:46.849Z,2.3
2017-08-29T05:06:49.612Z,2.2
2017-08-29T05:07:52.034Z,2.2
2017-08-29T05:08:54.462Z,2.2
2017-08-29T05:09:56.885Z,2.3
2017-08-29T05:10:59.308Z,2.3
2017-08-29T05:12:01.745Z,2.3
2017-08-29T05:13:04.171Z,2.2
2017-08-29T05:14:06.600Z,2.3
2017-08-29T05:15:09.367Z,2.3
2017-08-29T05:16:11.795Z,2.2
2017-08-29T05:17:14.221Z,2.3
2017-08-29T05:18:16.645Z,2.3
2017-08-29T05:19:19.078Z,2.3
2017-08-29T05:20:21.506Z,2.3
2017-08-29T05:21:23.933Z,2.3
2017-08-29T05:22:26.718Z,2.2
2017-08-29T05:23:29.146Z,2.3
2017-08-29T05:24:31.573Z,2.3
2017-08-29T05:25:33.998Z,2.3
2017-08-29T05:26:36.435Z,2.3
2017-08-29T05:27:38.861Z,2.3
2017-08-29T05:28:41.298Z,2.3
2017-08-29T05:29:43.727Z,2.3
2017-08-29T05:30:46.157Z,2.3
2017-08-29T05:31:48.590Z,2.3
2017-08-29T05:32:51.014Z,2.3
2017-08-29T05:33:53.443Z,2.3
2017-08-29T05:34:55.870Z,2.3
2017-08-29T05:35:58.294Z,2.3
2017-08-29T05:37:00.722Z,2.3
2017-08-29T05:38:03.149Z,2.2
2017-08-29T05:39:05.583Z,2.3
2017-08-29T05:40:08.014Z,2.3
2017-08-29T05:41:10.444Z,2.3
2017-08-29T05:42:12.872Z,2.4
2017-08-29T05:43:15.302Z,2.3
2017-08-29T05:44:17.733Z,2.4
2017-08-29T05:45:20.155Z,2.3
2017-08-29T05:46:22.582Z,2.3
2017-08-29T05:47:25.010Z,2.3
2017-08-29T05:48:27.438Z,2.4
2017-08-29T05:49:29.863Z,2.3
2017-08-29T05:50:32.291Z,2.4
2017-08-29T05:51:34.714Z,2.3
2017-08-29T05:52:37.146Z,2.4
2017-08-29T05:53:39.578Z,2.3
2017-08-29T05:54:42.003Z,2.3
2017-08-29T05:55:44.431Z,2.4
2017-08-29T05:56:46.862Z,2.3
2017-08-29T05:57:49.280Z,2.3
2017-08-29T05:58:51.708Z,2.4
2017-08-29T05:59:54.135Z,2.4
2017-08-29T06:00:56.568Z,2.4
2017-08-29T06:01:59.339Z,2.3
2017-08-29T06:03:01.775Z,2.4
2017-08-29T06:04:04.558Z,2.4
2017-08-29T06:05:06.987Z,2.4
2017-08-29T06:06:09.420Z,2.4
2017-08-29T06:07:11.842Z,2.5
2017-08-29T06:08:14.279Z,2.4
2017-08-29T06:09:16.713Z,2.4
2017-08-29T06:11:16.914Z,2.4
2017-08-29T06:12:19.310Z,2.4
2017-08-29T06:13:21.714Z,2.4
2017-08-29T06:14:24.118Z,2.4
2017-08-29T06:15:26.524Z,2.5
2017-08-29T06:16:28.937Z,2.5
2017-08-29T06:17:31.341Z,2.4
2017-08-29T06:18:33.745Z,2.4
2017-08-29T06:19:36.155Z,2.4
2017-08-29T06:20:38.566Z,2.5
2017-08-29T06:21:40.964Z,2.6
2017-08-29T06:22:43.380Z,2.5
2017-08-29T06:23:45.773Z,2.6
2017-08-29T06:24:48.174Z,2.5
2017-08-29T06:25:50.577Z,2.7
2017-08-29T06:26:52.982Z,2.6
2017-08-29T06:27:55.380Z,2.6
2017-08-29T06:28:58.130Z,2.5
2017-08-29T06:30:00.534Z,2.9
2017-08-29T06:31:02.942Z,2.9
2017-08-29T06:32:05.342Z,2.6
2017-08-29T06:33:07.748Z,2.6
2017-08-29T06:34:10.151Z,2.7
2017-08-29T06:35:12.562Z,2.5
2017-08-29T06:36:14.962Z,2.6
2017-08-29T06:37:17.374Z,2.6
2017-08-29T06:38:19.772Z,2.6
2017-08-29T06:39:22.175Z,2.6
2017-08-29T06:41:09.461Z,2.6
2017-08-29T06:42:12.248Z,2.9
2017-08-29T06:43:14.675Z,2.7
2017-08-29T06:44:17.109Z,2.6
2017-08-29T06:45:19.539Z,2.7
2017-08-29T06:46:21.964Z,2.7
2017-08-29T06:47:24.395Z,2.7
2017-08-29T06:48:26.825Z,2.6
2017-08-29T06:49:29.260Z,2.7
2017-08-29T06:50:31.686Z,2.6
2017-08-29T06:51:34.118Z,2.9
2017-08-29T06:52:36.546Z,2.9
2017-08-29T06:53:38.973Z,2.7
2017-08-29T06:54:41.401Z,3
2017-08-29T06:55:44.178Z,2.7
2017-08-29T06:56:46.604Z,2.7
2017-08-29T06:57:49.043Z,2.9
2017-08-29T06:58:51.468Z,3
2017-08-29T06:59:53.902Z,2.8
2017-08-29T07:00:56.332Z,2.8
2017-08-29T07:01:58.763Z,2.7
2017-08-29T07:03:01.194Z,2.8
2017-08-29T07:04:03.975Z,2.7
2017-08-29T07:05:06.399Z,2.8
2017-08-29T07:06:09.176Z,2.8
2017-08-29T07:07:11.608Z,3
2017-08-29T07:08:14.038Z,2.9
2017-08-29T07:09:16.469Z,2.8
2017-08-29T07:10:18.905Z,2.8
2017-08-29T07:11:21.333Z,2.9
2017-08-29T07:12:23.768Z,2.8
2017-08-29T07:13:26.196Z,2.8
2017-08-29T07:14:28.624Z,2.9
2017-08-29T07:15:31.055Z,2.9
2017-08-29T07:16:33.494Z,2.9
2017-08-29T07:17:35.922Z,2.9
2017-08-29T07:18:38.696Z,3
2017-08-29T07:19:41.134Z,3
2017-08-29T07:20:43.565Z,3
2017-08-29T07:21:45.988Z,3.3
2017-08-29T07:22:48.421Z,3.2
2017-08-29T07:23:51.187Z,3.1
2017-08-29T07:24:53.617Z,3.2
2017-08-29T07:25:56.051Z,3.3
2017-08-29T07:26:58.489Z,3
2017-08-29T07:28:00.913Z,3.3
2017-08-29T07:29:03.354Z,3.3
2017-08-29T07:30:05.785Z,3
2017-08-29T07:31:08.562Z,3.3
2017-08-29T07:32:10.999Z,3.3
2017-08-29T07:33:13.776Z,3.2
2017-08-29T07:34:16.208Z,3.1
2017-08-29T07:35:18.645Z,3.1
2017-08-29T07:36:21.068Z,3.3
2017-08-29T07:37:23.505Z,3.2
2017-08-29T07:38:26.271Z,3.1
2017-08-29T07:39:28.702Z,3.4
2017-08-29T07:40:31.132Z,3.2
2017-08-29T07:41:33.566Z,3.2
2017-08-29T07:42:35.992Z,3.2
2017-08-29T07:43:38.429Z,3.2
2017-08-29T07:44:40.868Z,3.3
2017-08-29T07:45:43.301Z,3.3
2017-08-29T07:46:46.103Z,3.3
2017-08-29T07:47:48.534Z,3.4
2017-08-29T07:48:50.960Z,3.4
2017-08-29T07:49:53.730Z,3.2
2017-08-29T07:50:56.172Z,3.5
2017-08-29T07:51:58.601Z,3.3
2017-08-29T07:53:01.041Z,3.3
2017-08-29T07:54:03.485Z,3.3
2017-08-29T07:55:06.244Z,3.3
2017-08-29T07:56:08.681Z,3.3
2017-08-29T07:57:11.115Z,3.3
2017-08-29T07:58:13.549Z,3.3
2017-08-29T07:59:15.986Z,3.2
2017-08-29T08:00:18.410Z,3.2
2017-08-29T08:01:20.842Z,3.3
2017-08-29T08:02:23.286Z,3.3
2017-08-29T08:03:25.714Z,3.3
2017-08-29T08:04:28.152Z,3.3
2017-08-29T08:05:30.584Z,3.4
2017-08-29T08:06:33.012Z,3.4
2017-08-29T08:07:35.451Z,3.3
2017-08-29T08:08:38.224Z,3.4
2017-08-29T08:09:40.651Z,3.4
2017-08-29T08:10:43.098Z,3.4
2017-08-29T08:11:45.537Z,3.4
2017-08-29T08:12:47.972Z,3.4
2017-08-29T08:13:50.407Z,3.4
2017-08-29T08:14:52.847Z,3.5
2017-08-29T08:15:55.281Z,3.4
2017-08-29T08:16:57.725Z,3.5
2017-08-29T08:18:00.166Z,3.5
2017-08-29T08:19:02.593Z,3.5
2017-08-29T08:20:05.032Z,3.6
2017-08-29T08:21:07.468Z,3.6
2017-08-29T08:22:10.252Z,3.6
2017-08-29T08:23:12.692Z,3.6
2017-08-29T08:24:15.123Z,3.6
2017-08-29T08:25:17.585Z,3.7
2017-08-29T08:26:20.029Z,3.7
2017-08-29T08:27:22.464Z,3.6
2017-08-29T08:28:25.235Z,3.7
2017-08-29T08:29:27.671Z,3.7
2017-08-29T08:30:30.107Z,3.7
2017-08-29T08:31:32.573Z,3.7
2017-08-29T08:32:35.017Z,3.7
2017-08-29T08:33:37.446Z,3.7
2017-08-29T08:34:39.882Z,3.8
2017-08-29T08:35:42.510Z,3.8
2017-08-29T08:36:44.941Z,3.8
2017-08-29T08:37:47.423Z,3.7
2017-08-29T08:38:49.863Z,3.8
2017-08-29T08:39:52.303Z,3.8
2017-08-29T08:40:54.739Z,3.9
2017-08-29T08:41:57.178Z,4
2017-08-29T08:42:59.610Z,4
2017-08-29T08:44:02.044Z,4
2017-08-29T08:45:04.827Z,4.1
2017-08-29T08:46:07.601Z,4
2017-08-29T08:47:10.036Z,4.1
2017-08-29T08:48:12.474Z,4
2017-08-29T08:49:14.929Z,4
2017-08-29T08:50:17.349Z,4.2
2017-08-29T08:51:19.798Z,4.2
2017-08-29T08:52:22.228Z,4.3
2017-08-29T08:53:24.668Z,4.8
2017-08-29T08:55:30.120Z,4.8
2017-08-29T08:56:32.569Z,3.8
2017-08-29T08:57:26.379Z,4.1
2017-08-29T08:57:43.064Z,4.1
2017-08-29T08:58:03.381Z,1.9
2017-08-29T08:58:05.468Z,2.1
2017-08-29T09:05:10.182Z,9
2017-08-29T11:34:56.936Z,2.1
2017-08-29T11:35:59.376Z,2.8
2017-08-29T11:37:01.811Z,4.2
2017-08-29T11:38:04.253Z,5.1
2017-08-29T11:39:07.035Z,5.4
2017-08-29T11:40:10.163Z,6.2
2017-08-29T11:41:12.603Z,6.5
2017-08-29T11:42:15.043Z,6.3
2017-08-29T11:43:17.474Z,6.1
2017-08-29T11:44:19.922Z,6.1
2017-08-29T11:45:22.711Z,6.1
2017-08-29T11:46:25.140Z,6.1
2017-08-29T11:47:27.716Z,5.9
2017-08-29T11:48:30.157Z,5.3
2017-08-29T11:49:32.598Z,5.3
2017-08-29T11:50:35.038Z,5.3
2017-08-29T11:51:37.479Z,5.3
2017-08-29T11:52:39.918Z,5.3
2017-08-29T11:53:42.363Z,5.2
2017-08-29T11:54:44.810Z,5.3
2017-08-29T11:55:47.243Z,5.3
2017-08-29T11:56:49.689Z,5.4
2017-08-29T11:57:52.130Z,5.4
2017-08-29T11:58:54.572Z,5.5
2017-08-29T11:59:57.049Z,5.4
2017-08-29T12:00:59.484Z,5.3
2017-08-29T12:02:01.928Z,5.4
2017-08-29T12:03:04.372Z,5.4
2017-08-29T12:04:06.808Z,5.5
2017-08-29T12:05:09.285Z,5.4
2017-08-29T12:06:11.748Z,5.4
2017-08-29T12:07:14.194Z,5.4
2017-08-29T12:08:16.976Z,5.5
2017-08-29T12:09:19.611Z,5.4
2017-08-29T12:10:22.061Z,5.7
2017-08-29T12:11:24.496Z,5.7
2017-08-29T12:12:26.939Z,5.5
2017-08-29T12:13:29.374Z,5.6
2017-08-29T12:14:32.114Z,5.5
2017-08-29T12:15:34.559Z,5.6
2017-08-29T12:16:37.007Z,5.6
2017-08-29T12:17:40.492Z,5.6
2017-08-29T12:18:42.953Z,5.6
2017-08-29T12:19:45.389Z,5.8
2017-08-29T12:20:47.832Z,5.8
2017-08-29T12:21:50.278Z,5.7
2017-08-29T12:22:52.720Z,5.8
2017-08-29T12:23:55.283Z,5.8
2017-08-29T12:24:58.060Z,5.8
2017-08-29T12:26:00.506Z,5.8
2017-08-29T12:27:02.952Z,5.8
2017-08-29T12:28:05.394Z,5.7
2017-08-29T12:29:07.837Z,5.7
2017-08-29T12:30:10.295Z,5.8
2017-08-29T12:31:14.188Z,5.9
2017-08-29T12:32:16.640Z,6.4
2017-08-29T12:33:19.446Z,6.7
2017-08-29T12:34:21.894Z,6.6
2017-08-29T12:35:24.341Z,6.3
2017-08-29T12:36:26.780Z,6.3
2017-08-29T12:37:29.226Z,6.4
2017-08-29T12:38:31.676Z,6.4
2017-08-29T12:39:34.126Z,6.3
2017-08-29T12:40:36.571Z,6.3
2017-08-29T12:41:39.010Z,6.4
2017-08-29T12:42:41.451Z,6.4
2017-08-29T12:43:43.904Z,6.3
2017-08-29T12:44:46.339Z,6.4
2017-08-29T12:45:49.157Z,5.9
2017-08-29T12:46:51.631Z,5.4
2017-08-29T12:47:54.075Z,5.5
2017-08-29T12:48:56.860Z,5.8
2017-08-29T12:49:59.332Z,5.9
2017-08-29T12:51:01.794Z,6
2017-08-29T12:52:04.336Z,5.9
2017-08-29T12:53:06.823Z,6.1
2017-08-29T12:54:09.268Z,6
2017-08-29T12:55:11.709Z,6
2017-08-29T12:56:14.162Z,6.1
2017-08-29T12:57:16.601Z,6.1
2017-08-29T12:58:19.048Z,6
2017-08-29T12:59:21.494Z,6.1
2017-08-29T13:00:23.938Z,6.2
2017-08-29T13:01:26.383Z,6.1
2017-08-29T13:02:29.177Z,6.1
2017-08-29T13:03:31.616Z,6.2
2017-08-29T13:04:34.058Z,6.2
2017-08-29T13:05:36.505Z,6.2
2017-08-29T13:06:38.954Z,6.3
2017-08-29T13:07:41.396Z,6.2
2017-08-29T13:08:43.847Z,6.3
2017-08-29T13:09:46.292Z,6.3
2017-08-29T13:10:48.736Z,6.3
2017-08-29T13:11:51.186Z,6.2
2017-08-29T13:12:53.632Z,6.2
2017-08-29T13:13:56.079Z,6.3
2017-08-29T13:14:58.527Z,6.2
2017-08-29T13:16:00.970Z,6.2
2017-08-29T13:17:03.416Z,6.1
2017-08-29T13:18:05.872Z,6.2
2017-08-29T13:19:08.308Z,6.3
2017-08-29T13:20:10.757Z,6.3
2017-08-29T13:21:13.206Z,6.3
2017-08-29T13:22:15.649Z,6.2
2017-08-29T13:23:18.089Z,6.2
2017-08-29T13:24:20.531Z,6.2
2017-08-29T13:25:23.308Z,6.1
2017-08-29T13:26:26.096Z,6.1
2017-08-29T13:27:28.544Z,6.3
2017-08-29T13:28:31.316Z,6.3
2017-08-29T13:29:33.776Z,6.2
2017-08-29T13:30:36.580Z,6.4
2017-08-29T13:31:39.027Z,6.3
2017-08-29T13:32:41.473Z,6.1
2017-08-29T13:33:43.922Z,6.1
2017-08-29T13:34:46.365Z,6.2
2017-08-29T13:35:48.805Z,6.1
2017-08-29T13:36:51.606Z,6.2
2017-08-29T13:37:54.047Z,5.8
2017-08-29T13:38:56.483Z,6
2017-08-29T13:39:58.924Z,5.9
2017-08-29T13:41:01.367Z,6
2017-08-29T13:42:03.802Z,6.1
2017-08-29T13:43:06.253Z,6.1
2017-08-29T13:44:08.694Z,6.1
2017-08-29T13:45:11.134Z,6.4
2017-08-29T13:46:13.581Z,6.8
2017-08-29T13:47:16.019Z,5.7
2017-08-29T13:48:18.461Z,5.5
2017-08-29T13:49:20.907Z,5.6
2017-08-29T13:50:23.336Z,5.6
2017-08-29T13:51:25.783Z,5.6
2017-08-29T13:52:28.224Z,5.7
2017-08-29T13:53:30.661Z,5.7
2017-08-29T13:54:33.103Z,5.6
2017-08-29T13:55:35.540Z,5.7
2017-08-29T13:56:37.980Z,5.7
2017-08-29T13:57:40.422Z,5.8
2017-08-29T13:58:42.861Z,5.7
2017-08-29T14:07:10.790Z,10
2017-08-29T14:07:50.475Z,6.3
2017-08-29T14:08:52.929Z,5.9
2017-08-29T14:09:55.373Z,6.3
2017-08-29T14:10:57.826Z,5.1
2017-08-29T14:12:00.279Z,5.2
2017-08-29T14:13:02.731Z,5.1
2017-08-29T14:14:05.182Z,5.6
2017-08-29T14:16:50.139Z,5.6
2017-08-29T14:17:52.593Z,5.6
2017-08-29T14:18:55.040Z,4.6
2017-08-29T15:30:14.082Z,2.1
2017-08-29T15:31:16.531Z,3.2
2017-08-29T16:17:43.052Z,2.2
2017-08-29T16:18:11.671Z,4.8
2017-08-29T16:19:14.126Z,4.1
2017-08-29T16:20:16.571Z,4.8
2017-08-29T16:21:19.023Z,4.7
2017-08-29T16:22:21.480Z,5.2
2017-08-29T16:23:23.930Z,5.9
2017-08-29T16:24:26.388Z,5.7
2017-08-29T16:25:28.837Z,6
2017-08-29T16:26:31.289Z,5.3
2017-08-29T16:27:33.741Z,5.2
2017-08-29T16:28:36.205Z,4.8
2017-08-29T16:29:38.650Z,4.7
2017-08-29T16:30:41.104Z,4.6
2017-08-29T16:31:43.804Z,4.7
2017-08-29T16:32:46.253Z,4.8
2017-08-29T16:33:48.704Z,4.4
2017-08-29T16:34:51.149Z,4.6
2017-08-29T16:35:53.598Z,4.5
2017-08-29T16:36:56.048Z,4.6
2017-08-29T16:42:44.687Z,0.1
2017-08-29T16:43:47.130Z,0.9
2017-08-29T16:44:49.572Z,3.5
2017-08-29T16:50:59.871Z,2
2017-08-29T16:51:02.199Z,2.9
2017-08-29T16:55:16.172Z,1.8
2017-08-29T16:55:33.006Z,3.5
2017-08-29T17:01:58.006Z,2.9
2017-08-29T17:12:21.866Z,1.7
2017-08-29T17:13:24.315Z,2
2017-08-29T17:14:27.297Z,3.2
2017-08-29T17:15:30.083Z,3.7
2017-08-29T17:16:32.532Z,3.8
2017-08-29T17:17:34.979Z,3.8
2017-08-29T17:18:37.426Z,4
2017-08-29T17:19:39.876Z,4.1
2017-08-29T17:20:42.344Z,4.1
2017-08-29T17:21:45.137Z,4.1
2017-08-29T17:22:47.584Z,4.2
2017-08-29T17:23:50.027Z,4
2017-08-29T17:24:52.480Z,3.9
2017-08-29T17:25:54.926Z,3.9
2017-08-29T17:26:57.379Z,3.9
2017-08-29T17:27:59.825Z,3.9
2017-08-29T17:29:02.271Z,3.8
2017-08-29T17:30:04.758Z,3.8
2017-08-29T17:31:07.207Z,3.8
2017-08-29T17:32:09.655Z,3.9
2017-08-29T17:33:12.091Z,4
2017-08-29T17:34:14.546Z,4
2017-08-29T17:35:17.335Z,4.3
2017-08-29T17:36:19.782Z,4.3
2017-08-29T17:37:22.226Z,4.5
2017-08-29T17:38:24.668Z,3.9
2017-08-29T17:39:27.110Z,4
2017-08-29T17:40:29.557Z,4
2017-08-29T17:41:31.996Z,4.1
2017-08-29T17:42:34.438Z,4.2
2017-08-29T17:43:36.883Z,4.2
2017-08-29T17:44:39.340Z,4.1
2017-08-29T17:45:41.782Z,4.3
2017-08-29T17:46:44.225Z,4.1
2017-08-29T17:47:46.680Z,4.2
2017-08-29T17:48:49.129Z,4.1
2017-08-29T17:49:51.576Z,4.1
2017-08-29T17:50:54.016Z,4
2017-08-29T17:51:56.462Z,4.1
2017-08-29T17:52:58.908Z,4.1
2017-08-29T17:54:01.357Z,4
2017-08-29T17:55:04.139Z,4
2017-08-29T17:56:06.591Z,4
2017-08-29T17:57:09.026Z,4.1
2017-08-29T17:58:11.471Z,4.1
2017-08-29T17:59:13.920Z,4.1
2017-08-29T18:00:16.364Z,4
2017-08-29T18:01:18.810Z,4
2017-08-29T18:02:21.599Z,3.9
2017-08-29T18:03:24.046Z,3.9
2017-08-29T18:04:26.502Z,3.9
2017-08-29T18:05:29.288Z,3.9
2017-08-29T18:06:31.731Z,3.9
2017-08-29T18:07:34.174Z,3.8
2017-08-29T18:08:36.624Z,3.8
2017-08-29T18:09:39.065Z,3.8
2017-08-29T18:10:41.505Z,3.8
2017-08-29T18:11:43.953Z,3.8
2017-08-29T18:12:46.698Z,3.8
2017-08-29T18:13:49.481Z,3.7
2017-08-29T18:14:52.265Z,3.8
2017-08-29T18:15:54.710Z,3.8
2017-08-29T18:16:57.154Z,3.8
2017-08-29T18:17:59.597Z,3.7
2017-08-29T18:19:02.036Z,3.7
2017-08-29T18:20:04.481Z,3.7
2017-08-29T18:21:06.935Z,3.8
2017-08-29T18:22:09.373Z,3.7
2017-08-29T18:23:11.816Z,3.8
2017-08-29T18:24:14.258Z,3.6
2017-08-29T18:25:16.703Z,3.5
2017-08-29T18:26:19.160Z,3.6
2017-08-29T18:27:21.603Z,3.6
2017-08-29T18:28:24.384Z,3.6
2017-08-29T18:29:26.830Z,3.7
2017-08-29T18:30:29.272Z,3.7
2017-08-29T18:31:31.724Z,3.6
2017-08-29T18:32:34.165Z,3.6
2017-08-29T18:33:36.613Z,3.6
2017-08-29T18:34:39.050Z,3.7
2017-08-29T18:35:41.492Z,3.6
2017-08-29T18:36:43.935Z,3.6
2017-08-29T18:37:46.378Z,3.6
2017-08-29T18:38:48.819Z,3.6
2017-08-29T18:39:51.271Z,3.6
2017-08-29T18:40:54.056Z,3.5
2017-08-29T18:41:56.842Z,3.5
2017-08-29T18:42:59.291Z,3.6
2017-08-29T18:44:01.736Z,3.5
2017-08-29T18:45:04.177Z,3.6
2017-08-29T18:46:06.625Z,3.5
2017-08-29T18:47:09.067Z,3.5
2017-08-29T18:48:11.510Z,3.5
2017-08-29T18:49:13.952Z,3.5
2017-08-29T18:50:16.395Z,3.5
2017-08-29T18:51:18.839Z,3.4
2017-08-29T18:52:21.284Z,3.5
2017-08-29T18:53:23.725Z,3.4
2017-08-29T18:54:26.168Z,3.5
2017-08-29T18:55:28.619Z,3.4
2017-08-29T18:56:31.054Z,3.4
2017-08-29T18:57:33.497Z,3.4
2017-08-29T18:58:35.944Z,3.4
2017-08-29T18:59:38.382Z,3.4
2017-08-29T19:00:41.166Z,3.2
2017-08-29T19:01:43.602Z,3.4
2017-08-29T19:02:46.056Z,3.4
2017-08-29T19:03:48.487Z,3.4
2017-08-29T19:04:50.931Z,3.4
2017-08-29T19:05:53.369Z,3.3
2017-08-29T19:06:55.819Z,3.4
2017-08-29T19:07:58.264Z,3.4
2017-08-29T19:09:00.706Z,3.4
2017-08-29T19:10:03.497Z,3.7
2017-08-29T19:11:05.942Z,3.6
2017-08-29T19:12:08.386Z,3.3
2017-08-29T19:13:10.823Z,3.3
2017-08-29T19:14:13.267Z,3.4
2017-08-29T19:15:15.709Z,3.4
2017-08-29T19:16:18.146Z,3.3
2017-08-29T19:17:20.588Z,3.4
2017-08-29T19:18:23.030Z,3.4
2017-08-29T19:19:25.832Z,3.3
2017-08-29T19:20:28.287Z,3.4
2017-08-29T19:21:30.727Z,3.4
2017-08-29T19:22:33.166Z,3.3
2017-08-29T19:23:35.610Z,3.3
2017-08-29T19:24:38.394Z,3.2
2017-08-29T19:25:40.841Z,3.3
2017-08-29T19:26:43.286Z,3.3
2017-08-29T19:27:45.717Z,3.4